createdAt,value
2019-04-11T00:01:46.900Z,8.31
2019-04-11T00:05:23.685Z,8.25
2019-04-11T00:07:58.052Z,8.32
2019-04-11T00:10:39.573Z,8.29
2019-04-11T00:13:24.389Z,8.23
2019-04-11T00:15:53.539Z,8.21
2019-04-11T00:18:25.328Z,8.07
2019-04-11T00:21:42.833Z,7.98
2019-04-11T00:24:20.954Z,7.92
2019-04-11T00:26:54.896Z,7.91
2019-04-11T00:29:28.469Z,7.88
2019-04-11T00:32:01.117Z,7.88
2019-04-11T00:34:37.346Z,7.84
2019-04-11T00:37:08.672Z,7.84
2019-04-11T00:39:40.654Z,7.84
2019-04-11T00:42:18.711Z,7.90
2019-04-11T00:44:51.386Z,7.86
2019-04-11T00:47:25.470Z,7.83
2019-04-11T00:49:56.924Z,7.76
2019-04-11T00:52:49.743Z,7.79
2019-04-11T00:55:23.838Z,7.79
2019-04-11T00:57:59.237Z,7.77
2019-04-11T01:00:33.684Z,7.72
2019-04-11T01:03:20.114Z,7.63
2019-04-11T01:05:51.726Z,7.64
2019-04-11T01:08:35.727Z,7.56
2019-04-11T01:11:13.952Z,7.49
2019-04-11T01:13:55.278Z,7.56
2019-04-11T01:16:43.042Z,7.51
2019-04-11T01:19:40.612Z,7.46
2019-04-11T01:22:14.228Z,7.35
2019-04-11T01:24:46.526Z,7.30
2019-04-11T01:27:34.100Z,7.33
2019-04-11T01:30:08.190Z,7.25
2019-04-11T01:32:40.735Z,7.28
2019-04-11T01:35:13.360Z,7.19
2019-04-11T01:37:46.129Z,7.16
2019-04-11T01:41:10.037Z,7.13
2019-04-11T01:44:13.127Z,7.05
2019-04-11T01:46:49.353Z,7.01
2019-04-11T01:49:48.808Z,6.97
2019-04-11T01:52:20.329Z,6.90
2019-04-11T01:54:52.852Z,6.78
2019-04-11T01:57:29.717Z,6.72
2019-04-11T02:00:12.484Z,6.67
2019-04-11T02:02:50.858Z,6.55
2019-04-11T02:05:29.397Z,6.48
2019-04-11T02:08:00.856Z,6.43
2019-04-11T02:10:32.833Z,6.33
2019-04-11T02:13:03.851Z,6.27
2019-04-11T02:15:36.654Z,6.25
2019-04-11T02:18:07.712Z,6.20
2019-04-11T02:20:39.085Z,6.16
2019-04-11T02:23:15.106Z,6.08
2019-04-11T02:25:54.899Z,6.01
2019-04-11T02:28:25.688Z,6.00
2019-04-11T02:30:57.819Z,5.99
2019-04-11T02:36:45.085Z,5.89
2019-04-11T02:39:19.589Z,5.84
2019-04-11T02:41:50.784Z,5.81
2019-04-11T02:44:45.494Z,5.75
2019-04-11T02:47:01.754Z,5.67
2019-04-11T02:49:28.014Z,5.65
2019-04-11T02:52:00.637Z,5.61
2019-04-11T02:54:33.533Z,5.61
2019-04-11T02:57:05.894Z,5.56
2019-04-11T02:59:38.766Z,5.52
2019-04-11T03:02:13.009Z,5.45
2019-04-11T03:04:43.924Z,5.39
2019-04-11T03:07:24.609Z,5.35
2019-04-11T03:09:56.504Z,5.32
2019-04-11T03:12:29.584Z,5.26
2019-04-11T03:15:16.688Z,5.21
2019-04-11T03:17:38.481Z,5.24
2019-04-11T03:20:20.933Z,5.22
2019-04-11T03:22:42.524Z,5.23
2019-04-11T03:25:22.543Z,5.17
2019-04-11T03:27:54.182Z,5.05
2019-04-11T03:30:42.130Z,5.00
2019-04-11T03:33:58.247Z,4.96
2019-04-11T03:36:28.990Z,4.87
2019-04-11T03:38:33.119Z,4.95
2019-04-11T03:40:59.594Z,5.01
2019-04-11T03:43:26.145Z,5.02
2019-04-11T03:46:11.898Z,4.99
2019-04-11T03:48:39.828Z,5.01
2019-04-11T03:50:57.414Z,4.93
2019-04-11T03:53:29.929Z,4.84
2019-04-11T03:56:03.642Z,4.69
2019-04-11T03:58:34.942Z,4.70
2019-04-11T04:01:10.942Z,4.62
2019-04-11T04:03:48.863Z,4.55
2019-04-11T04:06:19.138Z,4.45
2019-04-11T04:08:50.880Z,4.37
2019-04-11T04:11:27.116Z,4.32
2019-04-11T04:14:19.936Z,4.27
2019-04-11T04:17:19.158Z,4.26
2019-04-11T04:20:08.825Z,4.35
2019-04-11T04:22:49.703Z,4.25
2019-04-11T04:25:21.489Z,4.14
2019-04-11T04:27:54.671Z,4.01
2019-04-11T04:30:27.667Z,3.85
2019-04-11T04:33:20.184Z,3.81
2019-04-11T04:35:52.443Z,3.71
2019-04-11T04:38:31.574Z,3.70
2019-04-11T04:41:16.934Z,3.68
2019-04-11T04:43:38.830Z,3.72
2019-04-11T04:46:38.146Z,3.61
2019-04-11T04:48:51.559Z,3.55
2019-04-11T04:51:24.602Z,3.53
2019-04-11T04:53:57.863Z,3.50
2019-04-11T04:56:41.951Z,3.36
2019-04-11T04:59:14.612Z,3.33
2019-04-11T05:17:36.392Z,3.48
2019-04-11T05:23:21.404Z,3.77
2019-04-11T05:26:21.573Z,3.86
2019-04-11T05:29:19.615Z,3.95
2019-04-11T05:31:59.403Z,4.12
2019-04-11T05:34:32.789Z,4.16
2019-04-11T05:40:57.084Z,4.31
2019-04-11T05:47:14.532Z,4.33
2019-04-11T05:50:09.215Z,4.41
2019-04-11T05:52:50.382Z,4.42
2019-04-11T05:55:55.279Z,4.55
2019-04-11T05:59:24.449Z,4.66
2019-04-11T06:02:07.633Z,4.71
2019-04-11T06:04:50.109Z,4.76
2019-04-11T06:08:21.118Z,4.82
2019-04-11T06:11:23.676Z,4.86
2019-04-11T06:14:13.192Z,4.96
2019-04-11T06:16:57.603Z,5.11
2019-04-11T06:20:02.126Z,5.24
2019-04-11T06:22:42.191Z,5.19
2019-04-11T06:25:39.068Z,5.26
2019-04-11T06:28:28.964Z,5.37
2019-04-11T06:31:24.541Z,5.39
2019-04-11T06:34:07.195Z,5.50
2019-04-11T06:37:12.085Z,5.66
2019-04-11T06:40:07.844Z,5.61
2019-04-11T06:42:57.586Z,5.71
2019-04-11T06:45:59.127Z,5.96
2019-04-11T06:48:54.483Z,5.90
2019-04-11T06:51:32.341Z,5.90
2019-04-11T06:54:21.778Z,6.04
2019-04-11T06:56:53.817Z,6.13
2019-04-11T06:59:28.387Z,6.32
2019-04-11T07:02:11.578Z,6.25
2019-04-11T07:04:42.166Z,6.36
2019-04-11T07:07:13.408Z,6.43
2019-04-11T07:09:49.219Z,6.40
2019-04-11T07:12:38.575Z,6.29
2019-04-11T07:15:14.437Z,6.38
2019-04-11T07:18:06.073Z,6.58
2019-04-11T07:21:04.027Z,6.66
2019-04-11T07:23:53.411Z,6.88
2019-04-11T07:26:48.677Z,7.12
2019-04-11T07:29:37.915Z,7.34
2019-04-11T07:32:17.942Z,7.31
2019-04-11T07:35:06.383Z,7.44
2019-04-11T07:37:49.163Z,7.59
2019-04-11T07:40:39.469Z,7.78
2019-04-11T07:43:17.591Z,7.82
2019-04-11T07:46:10.170Z,7.97
2019-04-11T07:48:44.626Z,8.02
2019-04-11T07:51:40.873Z,8.23
2019-04-11T07:54:22.828Z,8.65
2019-04-11T07:56:55.917Z,9.07
2019-04-11T07:59:46.810Z,9.82
2019-04-11T08:02:35.514Z,10.03
2019-04-11T08:05:30.229Z,10.24
2019-04-11T08:08:26.808Z,10.95
2019-04-11T08:11:06.779Z,11.19
2019-04-11T08:13:56.286Z,11.11
2019-04-11T08:16:53.238Z,11.53
2019-04-11T08:19:42.769Z,12.16
2019-04-11T08:22:35.857Z,12.24
2019-04-11T08:25:25.118Z,12.78
2019-04-11T08:28:01.313Z,13.04
2019-04-11T08:30:39.926Z,13.15
2019-04-11T08:33:10.830Z,13.54
2019-04-11T08:36:02.000Z,14.12
2019-04-11T08:38:34.649Z,14.27
2019-04-11T08:41:27.509Z,14.41
2019-04-11T08:43:59.459Z,14.72
2019-04-11T08:47:41.938Z,14.85
2019-04-11T08:50:02.508Z,14.79
2019-04-11T08:53:37.203Z,15.19
2019-04-11T08:56:24.794Z,16.21
2019-04-11T08:59:47.215Z,16.78
2019-04-11T09:02:22.190Z,16.49
2019-04-11T09:05:19.657Z,17.04
2019-04-11T09:08:20.415Z,16.65
2019-04-11T09:11:15.096Z,17.20
2019-04-11T09:14:12.304Z,16.49
2019-04-11T09:17:05.905Z,17.01
2019-04-11T09:19:49.336Z,17.05
2019-04-11T09:22:33.109Z,16.93
2019-04-11T09:25:37.606Z,17.18
2019-04-11T09:28:19.698Z,17.82
2019-04-11T09:31:25.463Z,17.27
2019-04-11T09:34:18.186Z,16.42
2019-04-11T09:37:06.238Z,17.42
2019-04-11T09:40:24.288Z,17.02
2019-04-11T09:43:11.514Z,16.18
2019-04-11T09:46:10.378Z,15.63
2019-04-11T09:48:54.546Z,16.03
2019-04-11T09:51:38.067Z,15.81
2019-04-11T09:54:24.002Z,15.94
2019-04-11T09:57:17.069Z,16.92
2019-04-11T10:00:12.397Z,17.13
2019-04-11T10:02:54.335Z,16.34
2019-04-11T10:05:36.833Z,16.17
2019-04-11T10:08:33.134Z,16.83
2019-04-11T10:11:34.469Z,17.22
2019-04-11T10:14:09.313Z,17.34
2019-04-11T10:16:58.168Z,17.20
2019-04-11T10:19:58.305Z,17.82
2019-04-11T10:22:49.023Z,18.15
2019-04-11T10:25:30.251Z,17.06
2019-04-11T10:28:29.878Z,17.15
2019-04-11T10:31:12.653Z,16.27
2019-04-11T10:34:14.733Z,14.85
2019-04-11T10:37:09.741Z,15.26
2019-04-11T10:40:00.122Z,15.28
2019-04-11T10:42:32.725Z,15.31
2019-04-11T10:46:09.239Z,15.47
2019-04-11T10:49:05.373Z,15.25
2019-04-11T10:52:08.470Z,15.23
2019-04-11T10:54:41.122Z,14.78
2019-04-11T10:57:44.650Z,14.98
2019-04-11T11:00:37.610Z,14.81
2019-04-11T11:03:24.426Z,14.56
2019-04-11T11:09:37.798Z,14.21
2019-04-11T11:12:51.863Z,13.80
2019-04-11T11:15:33.972Z,13.74
2019-04-11T11:21:07.445Z,13.82
2019-04-11T11:24:07.170Z,13.74
2019-04-11T11:26:39.119Z,13.62
2019-04-11T11:29:37.140Z,13.98
2019-04-11T11:32:13.250Z,13.57
2019-04-11T11:34:53.384Z,13.61
2019-04-11T11:37:41.877Z,13.91
2019-04-11T11:40:50.085Z,14.11
2019-04-11T11:43:25.942Z,13.55
2019-04-11T11:46:16.116Z,13.57
2019-04-11T11:48:54.066Z,13.91
2019-04-11T11:52:24.893Z,13.85
2019-04-11T11:54:59.844Z,14.10
2019-04-11T11:57:44.854Z,14.51
2019-04-11T12:00:33.379Z,14.51
2019-04-11T12:03:35.263Z,14.83
2019-04-11T12:06:59.757Z,14.31
2019-04-11T12:09:42.513Z,14.41
2019-04-11T12:12:21.911Z,14.15
2019-04-11T12:15:22.469Z,14.69
2019-04-11T12:18:18.071Z,14.14
2019-04-11T12:20:56.277Z,12.97
2019-04-11T12:23:48.712Z,13.29
2019-04-11T12:26:12.545Z,13.30
2019-04-11T12:29:08.303Z,13.71
2019-04-11T12:31:40.326Z,14.24
2019-04-11T12:34:30.296Z,14.53
2019-04-11T12:37:06.191Z,14.79
2019-04-11T12:39:59.137Z,14.21
2019-04-11T12:42:33.583Z,14.06
2019-04-11T12:45:44.281Z,14.32
2019-04-11T12:48:15.623Z,14.60
2019-04-11T12:51:03.974Z,14.82
2019-04-11T12:53:34.680Z,14.76
2019-04-11T12:56:24.173Z,15.21
2019-04-11T12:59:19.761Z,15.22
2019-04-11T13:02:08.150Z,14.93
2019-04-11T13:04:45.019Z,15.02
2019-04-11T13:07:34.632Z,14.85
2019-04-11T13:10:24.171Z,14.61
2019-04-11T13:13:20.470Z,14.45
2019-04-11T13:16:12.212Z,14.64
2019-04-11T13:19:00.345Z,14.90
2019-04-11T13:21:56.124Z,15.50
2019-04-11T13:24:48.634Z,16.35
2019-04-11T13:27:25.168Z,16.52
2019-04-11T13:30:18.179Z,16.26
2019-04-11T13:33:03.736Z,15.66
2019-04-11T13:36:02.882Z,14.90
2019-04-11T13:38:41.936Z,15.23
2019-04-11T13:41:44.033Z,15.20
2019-04-11T13:44:19.918Z,15.06
2019-04-11T13:47:20.442Z,15.42
2019-04-11T13:49:53.582Z,15.86
2019-04-11T13:52:46.551Z,17.89
2019-04-11T13:55:28.272Z,18.70
2019-04-11T13:58:18.891Z,18.77
2019-04-11T14:00:51.467Z,19.39
2019-04-11T14:03:44.142Z,20.35
2019-04-11T14:06:25.640Z,21.24
2019-04-11T14:09:22.067Z,22.88
2019-04-11T14:11:54.538Z,23.44
2019-04-11T14:15:05.988Z,24.25
2019-04-11T14:18:12.208Z,23.19
2019-04-11T14:20:51.934Z,23.63
2019-04-11T14:23:45.281Z,21.44
2019-04-11T14:26:36.348Z,19.36
2019-04-11T14:29:26.620Z,18.65
2019-04-11T14:32:34.535Z,17.92
2019-04-11T14:35:39.735Z,17.59
2019-04-11T14:38:12.666Z,17.35
2019-04-11T14:41:05.170Z,20.47
2019-04-11T14:43:38.876Z,22.26
2019-04-11T14:46:28.655Z,19.79
2019-04-11T14:49:10.431Z,18.68
2019-04-11T14:51:58.703Z,19.19
2019-04-11T14:54:49.856Z,19.66
2019-04-11T14:57:54.620Z,19.35
2019-04-11T15:00:36.615Z,20.69
2019-04-11T15:03:35.313Z,21.22
2019-04-11T15:06:34.660Z,21.48
2019-04-11T15:09:31.947Z,22.26
2019-04-11T15:12:23.184Z,22.37
2019-04-11T15:15:15.869Z,22.95
2019-04-11T15:17:47.161Z,23.27
2019-04-11T15:20:42.376Z,21.81
2019-04-11T15:23:24.706Z,20.10
2019-04-11T15:26:14.446Z,18.14
2019-04-11T15:29:07.318Z,17.45
2019-04-11T15:31:55.764Z,16.51
2019-04-11T15:34:38.547Z,16.58
2019-04-11T15:37:28.642Z,18.09
2019-04-11T15:40:15.011Z,16.16
2019-04-11T15:42:57.379Z,15.04
2019-04-11T15:45:53.503Z,14.39
2019-04-11T15:49:49.153Z,14.53
2019-04-11T15:52:30.507Z,17.28
2019-04-11T15:55:24.533Z,20.70
2019-04-11T15:57:57.393Z,20.89
2019-04-11T16:01:04.054Z,20.54
2019-04-11T16:03:37.872Z,18.88
2019-04-11T16:06:26.245Z,17.18
2019-04-11T16:09:00.556Z,16.98
2019-04-11T16:11:53.843Z,16.99
2019-04-11T16:14:36.142Z,16.59
2019-04-11T16:17:35.175Z,16.13
2019-04-11T16:20:29.439Z,17.02
2019-04-11T16:23:27.044Z,15.90
2019-04-11T16:26:09.582Z,15.00
2019-04-11T16:29:12.993Z,14.22
2019-04-11T16:31:52.897Z,13.71
2019-04-11T16:34:51.561Z,13.46
2019-04-11T16:37:21.571Z,13.30
2019-04-11T16:40:11.131Z,12.90
2019-04-11T16:42:44.504Z,12.81
2019-04-11T16:45:37.837Z,12.72
2019-04-11T16:49:01.898Z,12.55
2019-04-11T16:51:42.303Z,12.49
2019-04-11T16:54:15.626Z,12.16
2019-04-11T16:56:46.830Z,11.88
2019-04-11T16:59:17.840Z,11.87
2019-04-11T17:01:53.416Z,11.91
2019-04-11T17:04:25.814Z,11.93
2019-04-11T17:07:26.633Z,11.91
2019-04-11T17:09:57.942Z,11.99
2019-04-11T17:12:57.978Z,11.88
2019-04-11T17:18:45.526Z,11.61
2019-04-11T17:21:18.747Z,11.51
2019-04-11T17:23:53.773Z,11.43
2019-04-11T17:27:47.080Z,11.35
2019-04-11T17:30:38.626Z,11.28
2019-04-11T17:33:29.257Z,11.10
2019-04-11T17:36:06.179Z,11.01
2019-04-11T17:38:39.122Z,10.84
2019-04-11T17:41:11.984Z,10.81
2019-04-11T17:43:46.706Z,10.76
2019-04-11T17:46:16.460Z,10.71
2019-04-11T17:48:50.246Z,10.60
2019-04-11T17:51:20.330Z,10.60
2019-04-11T17:53:55.552Z,10.54
2019-04-11T17:56:41.209Z,10.42
2019-04-11T18:02:36.499Z,10.27
2019-04-11T18:05:07.996Z,10.10
2019-04-11T18:07:41.361Z,10.05
2019-04-11T18:10:12.860Z,9.91
2019-04-11T18:12:43.909Z,9.83
2019-04-11T18:15:15.608Z,9.79
2019-04-11T18:17:46.843Z,9.69
2019-04-11T18:20:18.657Z,9.60
2019-04-11T18:26:29.032Z,9.58
2019-04-11T18:29:00.041Z,9.53
2019-04-11T18:31:30.868Z,9.49
2019-04-11T18:34:03.210Z,9.39
2019-04-11T18:36:37.240Z,9.30
2019-04-11T18:39:08.604Z,9.31
2019-04-11T18:41:39.524Z,9.19
2019-04-11T18:44:10.901Z,9.07
2019-04-11T18:46:42.697Z,9.14
2019-04-11T18:49:14.060Z,9.17
2019-04-11T18:51:45.608Z,9.09
2019-04-11T18:54:16.503Z,9.02
2019-04-11T18:56:47.591Z,9.04
2019-04-11T18:59:18.557Z,9.03
2019-04-11T19:01:50.006Z,8.93
2019-04-11T19:04:31.786Z,8.85
2019-04-11T19:06:54.414Z,8.86
2019-04-11T19:09:25.266Z,8.74
2019-04-11T19:12:00.043Z,8.68
2019-04-11T19:14:30.845Z,8.62
2019-04-11T19:17:02.073Z,8.57
2019-04-11T19:19:34.515Z,8.52
2019-04-11T19:22:06.682Z,8.43
2019-04-11T19:24:42.497Z,8.42
2019-04-11T19:27:58.255Z,8.39
2019-04-11T19:30:31.069Z,8.32
2019-04-11T19:39:06.467Z,8.21
2019-04-11T19:41:48.103Z,8.11
2019-04-11T19:44:21.357Z,8.07
2019-04-11T19:47:58.295Z,8.14
2019-04-11T19:50:30.987Z,8.15
2019-04-11T19:54:17.090Z,8.11
2019-04-11T19:57:04.947Z,8.04
2019-04-11T20:03:10.119Z,7.94
2019-04-11T20:09:11.808Z,7.81
2019-04-11T20:11:44.933Z,7.76
2019-04-11T20:14:18.361Z,7.70
2019-04-11T20:16:52.582Z,7.62
2019-04-11T20:19:27.350Z,7.58
2019-04-11T20:22:02.765Z,7.50
2019-04-11T20:24:54.792Z,7.66
2019-04-11T20:27:39.829Z,7.54
2019-04-11T20:30:53.163Z,7.49
2019-04-11T20:33:27.393Z,7.43
2019-04-11T20:35:58.960Z,7.34
2019-04-11T20:38:31.535Z,7.35
2019-04-11T20:44:37.323Z,7.28
2019-04-11T20:47:40.317Z,7.25
2019-04-11T20:50:14.593Z,7.19
2019-04-11T20:52:47.104Z,7.12
2019-04-11T20:56:24.186Z,7.18
2019-04-11T20:58:54.358Z,7.07
2019-04-11T21:01:28.761Z,7.06
2019-04-11T21:04:06.066Z,7.10
2019-04-11T21:06:41.464Z,6.99
2019-04-11T21:09:19.563Z,7.01
2019-04-11T21:15:06.601Z,6.93
2019-04-11T21:18:30.712Z,6.81
2019-04-11T21:21:12.692Z,6.78
2019-04-11T21:29:14.386Z,6.78
2019-04-11T21:31:56.604Z,6.75
2019-04-11T21:34:37.880Z,6.67
2019-04-11T21:37:13.921Z,6.55
2019-04-11T21:45:26.815Z,6.50
2019-04-11T21:51:03.976Z,6.42
2019-04-11T21:53:36.732Z,6.39
2019-04-11T21:56:11.138Z,6.35
2019-04-11T21:58:49.914Z,6.26
2019-04-11T22:01:21.960Z,6.27
2019-04-11T22:12:07.659Z,6.18
2019-04-11T22:14:41.344Z,6.10
2019-04-11T22:17:15.923Z,6.06
2019-04-11T22:19:50.123Z,6.06
2019-04-11T22:22:39.859Z,6.06
2019-04-11T22:25:18.326Z,6.05
2019-04-11T22:27:51.051Z,5.97
2019-04-11T22:30:26.009Z,5.89
2019-04-11T22:33:24.842Z,5.85
2019-04-11T22:35:59.340Z,5.78
2019-04-11T22:41:57.991Z,5.66
2019-04-11T22:47:12.668Z,5.64
2019-04-11T22:50:17.823Z,5.52
2019-04-11T22:53:12.818Z,5.46
2019-04-11T22:55:41.335Z,5.41
2019-04-11T23:02:00.761Z,5.35
2019-04-11T23:04:54.907Z,5.39
2019-04-11T23:07:29.681Z,5.30
2019-04-11T23:12:46.536Z,5.28
2019-04-11T23:15:22.572Z,5.24
2019-04-11T23:18:35.837Z,5.20
2019-04-11T23:21:08.717Z,5.18
2019-04-11T23:23:49.538Z,5.09
2019-04-11T23:26:22.682Z,5.11
2019-04-11T23:28:56.776Z,5.06
2019-04-11T23:31:29.560Z,4.99
2019-04-11T23:34:01.392Z,4.98
2019-04-11T23:36:32.741Z,4.89
2019-04-11T23:39:05.982Z,4.89
2019-04-11T23:44:20.324Z,4.73
2019-04-11T23:46:51.995Z,4.72
2019-04-11T23:49:25.225Z,4.73
2019-04-11T23:51:56.548Z,4.68
2019-04-11T23:54:29.254Z,4.73
2019-04-11T23:57:01.079Z,4.72
2019-04-11T23:59:32.811Z,4.66
